Time;durP1;ratioP1;P1;durP2;ratioP2;P2;SDS_P1;SDS_P2;PMS_P1;PMS_P2;Temp;Humidity;BMP_temperature;BMP_pressure;BME280_temperature;BME280_humidity;BME280_pressure;Samples;Min_cycle;Max_cycle;Signal;HPM_P1;HPM_P2
2022/05/08 00:00:30;;;;;;;7.10;4.97;;;;;;;18.26;54.13;101153.78;5014165;28;20296;-64
2022/05/08 00:02:58;;;;;;;6.43;5.47;;;;;;;18.24;54.09;101134.34;5014979;28;20311;-65
2022/05/08 00:05:26;;;;;;;8.00;5.47;;;;;;;18.23;53.67;101146.09;5014848;28;20680;-64
2022/05/08 00:07:55;;;;;;;7.50;5.93;;;;;;;18.16;53.90;101141.63;5014845;28;20209;-64
2022/05/08 00:10:23;;;;;;;9.43;5.83;;;;;;;18.14;53.86;101136.44;5013958;28;20213;-64
2022/05/08 00:12:50;;;;;;;8.90;5.80;;;;;;;18.12;53.92;101138.47;5013929;28;20210;-64
2022/05/08 00:15:19;;;;;;;7.93;6.20;;;;;;;18.02;54.39;101138.75;5014590;28;20727;-64
2022/05/08 00:17:47;;;;;;;10.47;6.10;;;;;;;18.00;54.46;101142.63;5022852;28;20674;-63
2022/05/08 00:20:15;;;;;;;9.67;6.40;;;;;;;17.98;54.24;101139.28;5033294;28;20258;-63
2022/05/08 00:22:46;;;;;;;8.07;6.20;;;;;;;17.98;54.12;101145.47;5015913;28;20202;-63
2022/05/08 00:25:14;;;;;;;7.70;6.20;;;;;;;17.97;54.52;101133.06;5014615;28;20645;-64
2022/05/08 00:27:41;;;;;;;11.00;6.47;;;;;;;17.98;54.64;101134.75;5014580;28;20343;-64
2022/05/08 00:30:10;;;;;;;9.37;6.40;;;;;;;17.93;54.44;101130.94;5013683;28;20209;-64
2022/05/08 00:32:40;;;;;;;11.67;7.10;;;;;;;17.91;54.67;101128.44;5014279;28;20518;-65
2022/05/08 00:35:10;;;;;;;8.97;7.07;;;;;;;17.89;54.72;101129.63;5013179;28;20231;-65
2022/05/08 00:37:38;;;;;;;10.07;6.90;;;;;;;17.86;54.68;101130.78;5013460;28;20225;-64
2022/05/08 00:40:07;;;;;;;10.40;6.90;;;;;;;17.85;55.14;101133.69;5013188;28;20233;-64
2022/05/08 00:42:35;;;;;;;9.77;6.93;;;;;;;17.80;55.09;101131.53;5012997;28;20705;-64
2022/05/08 00:45:04;;;;;;;9.80;6.93;;;;;;;17.75;55.43;101133.09;5013096;28;20206;-64
2022/05/08 00:47:32;;;;;;;10.47;7.70;;;;;;;17.73;55.62;101129.75;5013141;28;20241;-64
2022/05/08 00:50:01;;;;;;;9.33;6.80;;;;;;;17.76;55.44;101130.22;5012670;28;20248;-64
2022/05/08 00:52:30;;;;;;;9.90;6.97;;;;;;;17.73;55.53;101125.22;5013129;28;20324;-64
2022/05/08 00:54:58;;;;;;;8.53;7.33;;;;;;;17.73;56.03;101121.69;5012864;28;20737;-64
2022/05/08 00:57:26;;;;;;;11.00;7.10;;;;;;;17.70;55.62;101122.03;5003935;28;20236;-64
2022/05/08 00:59:54;;;;;;;11.03;7.27;;;;;;;17.71;56.02;101116.50;5012729;28;20206;-64
2022/05/08 01:02:21;;;;;;;9.57;7.87;;;;;;;17.72;55.96;101118.19;5013139;28;20209;-64
2022/05/08 01:04:49;;;;;;;12.00;7.73;;;;;;;17.71;56.00;101121.03;5012765;28;20229;-64
2022/05/08 01:07:21;;;;;;;9.93;7.67;;;;;;;17.65;56.43;101112.69;5013198;28;20213;-64
2022/05/08 01:09:49;;;;;;;10.73;7.97;;;;;;;17.62;56.05;101113.03;5012423;28;20271;-64
2022/05/08 01:12:17;;;;;;;10.93;7.87;;;;;;;17.57;56.51;101115.41;5012897;28;20256;-64
2022/05/08 01:14:45;;;;;;;11.30;8.37;;;;;;;17.56;56.55;101113.75;5012380;28;20717;-63
2022/05/08 01:17:15;;;;;;;12.07;7.93;;;;;;;17.54;56.24;101110.38;5016685;28;20203;-64
2022/05/08 01:19:43;;;;;;;10.83;8.27;;;;;;;17.49;56.68;101112.78;5031817;28;20283;-64
2022/05/08 01:22:14;;;;;;;10.60;8.03;;;;;;;17.49;57.24;101107.41;5018749;28;20580;-64
2022/05/08 01:24:42;;;;;;;12.93;8.63;;;;;;;17.52;57.04;101111.56;5012637;28;20219;-64
2022/05/08 01:27:10;;;;;;;12.40;8.97;;;;;;;17.50;57.37;101114.41;5012935;28;20304;-64
2022/05/08 01:29:38;;;;;;;9.67;7.37;;;;;;;17.57;56.98;101117.25;5012304;28;20251;-63
2022/05/08 01:32:07;;;;;;;13.87;8.73;;;;;;;17.56;57.15;101119.09;5011335;28;20220;-64
2022/05/08 01:34:35;;;;;;;10.70;8.10;;;;;;;17.51;57.65;101115.25;5012591;28;20202;-64
2022/05/08 01:37:02;;;;;;;11.20;8.03;;;;;;;17.49;57.38;101118.16;5012383;28;20215;-64
2022/05/08 01:39:34;;;;;;;9.67;8.00;;;;;;;17.43;57.65;101113.47;5011551;28;20356;-63
2022/05/08 01:42:04;;;;;;;10.87;8.37;;;;;;;17.41;57.94;101120.88;5012444;28;20694;-64
2022/05/08 01:44:32;;;;;;;10.50;8.60;;;;;;;17.50;57.26;101116.31;5012046;28;20241;-64
2022/05/08 01:49:42;;;;;;;11.83;8.47;;;;;;;17.42;57.64;101117.16;5011374;28;20259;-63
2022/05/08 01:52:09;;;;;;;11.73;7.93;;;;;;;17.43;58.04;101118.84;5012577;28;20305;-64
2022/05/08 01:54:40;;;;;;;10.93;8.03;;;;;;;17.38;58.42;101110.50;5011529;28;20252;-64
2022/05/08 01:57:08;;;;;;;12.87;8.47;;;;;;;17.42;58.47;101119.00;5012025;28;20300;-64
2022/05/08 01:59:36;;;;;;;11.27;9.27;;;;;;;17.39;58.14;101109.50;5011739;28;20320;-64
2022/05/08 02:02:04;;;;;;;11.93;7.97;;;;;;;17.35;58.36;101110.00;5012247;28;20529;-64
2022/05/08 02:04:32;;;;;;;11.43;8.40;;;;;;;17.34;58.41;101111.84;5011867;28;20212;-64
2022/05/08 02:06:59;;;;;;;12.93;7.63;;;;;;;17.32;58.44;101116.56;5011786;28;20217;-64
2022/05/08 02:09:27;;;;;;;13.67;8.43;;;;;;;17.27;58.51;101108.22;5011107;28;20206;-64
2022/05/08 02:11:56;;;;;;;13.30;8.77;;;;;;;17.20;58.61;101120.66;5012265;28;20208;-64
2022/05/08 02:14:24;;;;;;;9.90;7.40;;;;;;;17.20;58.40;101121.47;5012105;28;20665;-64
2022/05/08 02:16:51;;;;;;;10.00;7.63;;;;;;;17.21;58.71;101122.31;5012992;28;20213;-64
2022/05/08 02:19:19;;;;;;;10.80;8.30;;;;;;;17.17;59.02;101121.81;5031621;28;20233;-64
2022/05/08 02:21:47;;;;;;;9.43;7.20;;;;;;;17.19;58.79;101121.66;5021217;28;20210;-64
2022/05/08 02:24:15;;;;;;;10.73;7.87;;;;;;;17.12;59.24;101121.53;5012035;28;20646;-63
2022/05/08 02:26:43;;;;;;;9.60;7.60;;;;;;;17.09;59.13;101121.03;5012176;28;20299;-63
2022/05/08 02:29:12;;;;;;;10.60;7.40;;;;;;;17.10;59.06;101117.34;5010978;28;20688;-63
2022/05/08 02:31:40;;;;;;;11.03;7.93;;;;;;;17.08;59.25;101119.34;5011939;28;20220;-63
2022/05/08 02:34:08;;;;;;;10.13;6.57;;;;;;;17.06;59.47;101114.19;5012315;28;20295;-63
2022/05/08 02:36:35;;;;;;;10.20;7.73;;;;;;;17.06;59.30;101127.59;5011615;28;20666;-63
2022/05/08 02:39:03;;;;;;;9.43;7.43;;;;;;;17.06;59.79;101126.75;5010589;28;20730;-63
2022/05/08 02:41:37;;;;;;;12.57;7.70;;;;;;;17.04;59.81;101121.56;5011022;28;20289;-63
2022/05/08 02:44:05;;;;;;;9.77;7.80;;;;;;;17.04;59.65;101120.72;5011840;28;20651;-63
2022/05/08 02:46:34;;;;;;;14.80;8.13;;;;;;;17.02;59.84;101120.06;5011625;28;20215;-63
2022/05/08 02:49:02;;;;;;;17.33;8.37;;;;;;;16.99;59.76;101125.75;5011255;28;20777;-63
2022/05/08 02:51:29;;;;;;;11.83;8.10;;;;;;;16.94;60.01;101128.97;5012126;28;20209;-63
2022/05/08 02:53:57;;;;;;;11.10;8.07;;;;;;;16.92;60.44;101131.81;5011698;28;20670;-63
2022/05/08 02:59:06;;;;;;;9.60;8.40;;;;;;;16.92;60.17;101126.47;4990432;28;20997;-63
2022/05/08 03:01:35;;;;;;;11.37;8.50;;;;;;;16.88;60.64;101130.50;5011531;28;20300;-63
2022/05/08 03:04:03;;;;;;;13.27;8.50;;;;;;;16.86;60.74;101129.00;5011591;28;20678;-63
2022/05/08 03:06:31;;;;;;;9.13;7.57;;;;;;;16.83;60.79;101127.50;5011437;28;20773;-63
2022/05/08 03:08:59;;;;;;;11.87;7.70;;;;;;;16.84;61.12;101126.50;5010724;28;20217;-63
2022/05/08 03:11:28;;;;;;;9.93;8.03;;;;;;;16.85;61.13;101130.84;5011495;28;20297;-63
2022/05/08 03:13:57;;;;;;;14.77;7.53;;;;;;;16.82;61.33;101128.50;5011789;28;20205;-63
2022/05/08 03:16:28;;;;;;;11.80;8.27;;;;;;;16.83;61.10;101132.03;5011397;28;20219;-63
2022/05/08 03:18:57;;;;;;;11.47;8.10;;;;;;;16.83;61.37;101132.03;5028475;28;20684;-64
2022/05/08 03:21:25;;;;;;;10.73;7.73;;;;;;;16.81;61.33;101129.50;5022960;28;20256;-63
2022/05/08 03:23:53;;;;;;;11.63;8.03;;;;;;;16.76;61.40;101141.75;5010686;28;20244;-63
2022/05/08 03:26:21;;;;;;;11.53;7.90;;;;;;;16.75;61.81;101134.72;5010479;28;20235;-64
2022/05/08 03:28:48;;;;;;;10.27;8.13;;;;;;;16.75;61.45;101140.09;5010595;28;20201;-63
2022/05/08 03:31:18;;;;;;;11.17;8.07;;;;;;;16.70;61.88;101143.28;5011483;28;20227;-63
2022/05/08 03:33:46;;;;;;;14.40;8.90;;;;;;;16.67;62.31;101142.78;5011479;28;20725;-63
2022/05/08 03:36:15;;;;;;;9.90;8.57;;;;;;;16.67;62.25;101143.63;5010966;28;20304;-63
2022/05/08 03:38:44;;;;;;;13.20;8.43;;;;;;;16.66;62.08;101135.75;5010678;28;20318;-63
2022/05/08 03:41:15;;;;;;;10.90;8.17;;;;;;;16.60;62.69;101147.97;5010666;28;20201;-63
2022/05/08 03:43:44;;;;;;;10.93;8.67;;;;;;;16.61;62.68;101148.81;5011413;28;20742;-63
2022/05/08 03:46:13;;;;;;;11.30;8.17;;;;;;;16.53;63.10;101144.31;5011285;28;20264;-63
2022/05/08 03:48:41;;;;;;;13.17;8.43;;;;;;;16.51;62.85;101139.13;5010661;28;20210;-63
2022/05/08 03:51:09;;;;;;;12.73;9.23;;;;;;;16.55;62.69;101143.09;5011099;28;20209;-63
2022/05/08 03:53:38;;;;;;;14.23;9.23;;;;;;;16.54;63.04;101145.94;5010622;28;20241;-63
2022/05/08 03:56:08;;;;;;;11.33;8.27;;;;;;;16.52;62.79;101145.31;5011152;28;20217;-63
2022/05/08 03:58:37;;;;;;;9.60;8.10;;;;;;;16.49;62.80;101151.81;5010509;28;20202;-64
2022/05/08 04:01:05;;;;;;;12.23;7.97;;;;;;;16.48;62.99;101154.66;5010837;28;20944;-65
2022/05/08 04:03:32;;;;;;;12.93;9.13;;;;;;;16.48;63.48;101152.84;5010912;28;20696;-62
2022/05/08 04:06:00;;;;;;;11.03;8.23;;;;;;;16.51;63.30;101159.69;5010856;28;20210;-63
2022/05/08 04:08:28;;;;;;;13.13;9.17;;;;;;;16.52;63.08;101161.38;5010351;28;20206;-63
2022/05/08 04:10:57;;;;;;;13.27;9.20;;;;;;;16.45;63.17;101161.19;5011383;28;20684;-63
2022/05/08 04:13:25;;;;;;;11.07;8.80;;;;;;;16.46;63.38;101167.38;5010863;28;20213;-63
2022/05/08 04:18:38;;;;;;;14.37;9.67;;;;;;;16.44;63.45;101166.75;5029173;28;20204;-63
2022/05/08 04:21:06;;;;;;;12.37;8.90;;;;;;;16.43;63.16;101173.09;5028781;28;20213;-63
2022/05/08 04:26:20;;;;;;;11.70;8.63;;;;;;;16.33;63.67;101180.47;5014392;28;20296;-63
2022/05/08 04:28:48;;;;;;;11.80;8.43;;;;;;;16.32;63.87;101176.09;5013742;28;20220;-63
2022/05/08 04:31:16;;;;;;;12.87;9.03;;;;;;;16.31;63.82;101182.47;5013507;28;20209;-63
2022/05/08 04:33:44;;;;;;;10.80;8.63;;;;;;;16.31;64.07;101177.09;5014454;28;20303;-63
2022/05/08 04:36:12;;;;;;;10.17;8.60;;;;;;;16.35;64.01;101186.50;5013915;28;20209;-63
2022/05/08 04:38:40;;;;;;;11.67;8.60;;;;;;;16.35;64.09;101183.81;5013589;28;20213;-63
2022/05/08 04:41:07;;;;;;;11.33;8.50;;;;;;;16.36;64.04;101182.81;5013729;28;20245;-63
2022/05/08 04:43:37;;;;;;;12.53;9.10;;;;;;;16.33;63.91;101188.50;5013544;28;20303;-63
2022/05/08 04:46:04;;;;;;;12.77;9.27;;;;;;;16.31;64.36;101196.69;5013865;28;20292;-63
2022/05/08 04:48:32;;;;;;;11.87;8.77;;;;;;;16.32;64.37;101202.88;5013635;28;20312;-63
2022/05/08 04:51:00;;;;;;;17.03;9.57;;;;;;;16.32;64.27;101197.53;5014615;28;20292;-63
2022/05/08 04:53:27;;;;;;;13.30;9.37;;;;;;;16.30;64.69;101196.84;5014080;28;20229;-63
2022/05/08 04:55:55;;;;;;;11.60;8.90;;;;;;;16.35;64.43;101197.19;5013676;28;20785;-63
2022/05/08 04:58:23;;;;;;;12.40;8.60;;;;;;;16.34;65.02;101193.69;5014223;28;20213;-63
2022/05/08 05:00:52;;;;;;;12.60;8.57;;;;;;;16.42;64.47;101208.91;5013484;28;20221;-64
2022/05/08 05:03:20;;;;;;;12.67;8.80;;;;;;;16.37;64.98;101201.34;5013940;28;20205;-64
2022/05/08 05:05:47;;;;;;;13.00;8.33;;;;;;;16.38;64.53;101207.53;5014110;28;20716;-64
2022/05/08 05:08:15;;;;;;;11.07;8.63;;;;;;;16.38;64.62;101210.22;5014362;28;20700;-64
2022/05/08 05:10:43;;;;;;;13.23;8.50;;;;;;;16.35;65.24;101202.56;5012978;28;20343;-64
2022/05/08 05:13:11;;;;;;;12.20;8.77;;;;;;;16.39;65.10;101214.56;5013401;28;20301;-64
2022/05/08 05:15:38;;;;;;;12.40;8.50;;;;;;;16.39;65.49;101209.22;5013119;28;20296;-64
2022/05/08 05:18:08;;;;;;;13.43;8.73;;;;;;;16.43;65.18;101215.94;5012953;28;20272;-64
2022/05/08 05:20:36;;;;;;;13.67;9.73;;;;;;;16.46;65.27;101211.06;5012514;28;20221;-64
2022/05/08 05:23:04;;;;;;;13.43;9.43;;;;;;;16.48;65.38;101213.56;5013478;28;20209;-64
2022/05/08 05:25:32;;;;;;;12.97;8.97;;;;;;;16.52;65.34;101215.75;5013102;28;20216;-64
2022/05/08 05:27:59;;;;;;;12.80;9.50;;;;;;;16.55;65.34;101225.28;5012669;28;20309;-64
2022/05/08 05:30:33;;;;;;;10.50;8.60;;;;;;;16.56;65.60;101226.94;5012917;28;20199;-64
2022/05/08 05:33:01;;;;;;;12.07;9.17;;;;;;;16.61;65.16;101224.66;5012995;28;20221;-64
2022/05/08 05:35:30;;;;;;;11.07;8.80;;;;;;;16.68;65.32;101228.31;5012704;28;20235;-64
2022/05/08 05:37:58;;;;;;;14.33;8.67;;;;;;;16.69;64.92;101227.31;5012721;28;20212;-64
2022/05/08 05:40:25;;;;;;;12.40;9.43;;;;;;;16.73;65.03;101225.13;5011920;28;20240;-64
2022/05/08 05:42:54;;;;;;;12.90;8.30;;;;;;;16.76;64.91;101222.94;5013181;28;20552;-64
2022/05/08 05:45:21;;;;;;;11.37;9.03;;;;;;;16.79;64.61;101225.28;5012711;28;20201;-64
2022/05/08 05:47:52;;;;;;;13.30;9.07;;;;;;;16.79;64.77;101227.97;5013009;28;20213;-64
2022/05/08 05:50:21;;;;;;;13.00;9.07;;;;;;;16.79;65.02;101235.16;5012068;28;20190;-64
2022/05/08 05:52:51;;;;;;;13.07;9.20;;;;;;;16.81;65.09;101231.28;5012995;28;20297;-64
2022/05/08 05:55:20;;;;;;;14.87;10.03;;;;;;;16.79;65.06;101238.69;5012784;28;20241;-64
2022/05/08 05:57:48;;;;;;;11.50;9.13;;;;;;;16.81;65.57;101233.97;5012498;28;20272;-64
2022/05/08 06:00:17;;;;;;;11.87;8.80;;;;;;;16.87;65.05;101233.31;5012229;28;20312;-64
2022/05/08 06:02:47;;;;;;;9.57;8.50;;;;;;;16.82;65.26;101241.00;5012974;28;20300;-64
2022/05/08 06:05:15;;;;;;;16.93;9.03;;;;;;;16.82;65.75;101238.31;5012711;28;20248;-64
2022/05/08 06:07:43;;;;;;;14.47;8.80;;;;;;;16.90;65.33;101248.19;5012039;28;20323;-64
2022/05/08 06:10:15;;;;;;;12.03;8.73;;;;;;;16.96;65.17;101249.38;5011639;28;20206;-64
2022/05/08 06:12:42;;;;;;;17.87;9.07;;;;;;;16.96;64.76;101247.53;5012678;28;20236;-64
2022/05/08 06:15:11;;;;;;;14.87;8.83;;;;;;;16.97;65.12;101246.53;5011506;28;20214;-64
2022/05/08 06:17:39;;;;;;;12.93;8.23;;;;;;;16.97;65.28;101243.00;5012915;28;20239;-64
2022/05/08 06:20:08;;;;;;;13.20;9.17;;;;;;;17.04;65.07;101257.38;5011750;28;20237;-64
2022/05/08 06:22:36;;;;;;;12.83;9.00;;;;;;;17.04;65.46;101252.03;4995407;28;20631;-64
2022/05/08 06:25:06;;;;;;;12.90;8.57;;;;;;;17.05;65.65;101259.91;4992197;28;20210;-64
2022/05/08 06:27:35;;;;;;;11.77;8.73;;;;;;;17.08;65.81;101262.22;4996853;28;20198;-64
2022/05/08 06:30:03;;;;;;;12.67;9.13;;;;;;;17.12;65.49;101263.56;5011258;28;20209;-64
2022/05/08 06:32:32;;;;;;;12.53;8.37;;;;;;;17.20;65.48;101258.19;5012310;28;20217;-64
2022/05/08 06:35:19;;;;;;;13.07;8.57;;;;;;;17.25;65.20;101260.31;5011355;28;20247;-64
2022/05/08 06:37:51;;;;;;;12.60;8.97;;;;;;;17.28;64.77;101258.16;5011802;28;20499;-64
2022/05/08 06:40:19;;;;;;;17.23;8.60;;;;;;;17.32;65.10;101263.16;5010911;28;20213;-64
2022/05/08 06:42:48;;;;;;;12.10;7.80;;;;;;;17.37;65.45;101264.31;5012574;28;20209;-64
2022/05/08 06:45:17;;;;;;;13.20;8.97;;;;;;;17.41;65.20;101265.66;5011705;28;20303;-64
2022/05/08 06:47:49;;;;;;;11.53;8.03;;;;;;;17.46;65.24;101263.28;5012276;28;20607;-64
2022/05/08 06:50:18;;;;;;;12.93;8.77;;;;;;;17.51;64.91;101268.94;5011345;28;20205;-65
2022/05/08 06:52:45;;;;;;;10.40;8.17;;;;;;;17.53;65.30;101264.25;5011499;28;20568;-63
2022/05/08 06:55:13;;;;;;;11.50;8.63;;;;;;;17.59;64.73;101268.09;5011743;28;20272;-63
2022/05/08 06:57:48;;;;;;;12.43;8.47;;;;;;;17.61;64.88;101266.88;5011806;28;20558;-65
2022/05/08 07:03:04;;;;;;;13.53;8.47;;;;;;;17.70;65.15;101280.28;5012081;28;20734;-64
2022/05/08 07:05:37;;;;;;;12.87;8.97;;;;;;;17.72;65.22;101278.28;5011151;28;20210;-65
2022/05/08 07:08:05;;;;;;;15.57;8.87;;;;;;;17.73;64.60;101270.06;5011503;28;20215;-65
2022/05/08 07:10:33;;;;;;;12.40;8.37;;;;;;;17.77;65.10;101268.69;5010191;28;20227;-62
2022/05/08 07:13:02;;;;;;;11.47;8.17;;;;;;;17.86;65.25;101269.47;5011701;28;20235;-63
2022/05/08 07:15:30;;;;;;;11.17;8.27;;;;;;;17.92;65.56;101284.88;4992032;28;20310;-64
2022/05/08 07:18:18;;;;;;;10.67;7.80;;;;;;;17.91;64.27;101267.94;5016445;28;20196;-63
2022/05/08 07:20:46;;;;;;;9.17;7.23;;;;;;;17.97;63.74;101277.97;5027865;28;20328;-65
2022/05/08 07:23:13;;;;;;;10.57;7.23;;;;;;;18.05;63.97;101275.22;5011513;28;20299;-63
2022/05/08 07:25:41;;;;;;;9.70;6.70;;;;;;;18.09;64.25;101270.38;5011145;28;20215;-63
2022/05/08 07:28:10;;;;;;;10.63;7.60;;;;;;;18.12;63.74;101280.72;5011169;28;20209;-63
2022/05/08 07:30:38;;;;;;;12.50;7.50;;;;;;;18.19;63.33;101270.97;5009771;28;20332;-63
2022/05/08 07:33:06;;;;;;;11.03;7.17;;;;;;;18.21;62.82;101274.28;5011177;28;20675;-64
2022/05/08 07:38:27;;;;;;;14.07;7.60;;;;;;;18.28;63.54;101275.28;5010741;28;20209;-64
2022/05/08 07:41:01;;;;;;;12.67;8.20;;;;;;;18.36;64.08;101272.53;5010722;28;20675;-64
2022/05/08 07:43:30;;;;;;;12.13;7.20;;;;;;;18.48;63.80;101280.13;4994718;28;20614;-64
2022/05/08 07:45:58;;;;;;;12.40;8.33;;;;;;;18.48;62.84;101274.75;5011180;28;20670;-64
2022/05/08 07:48:26;;;;;;;9.57;6.50;;;;;;;18.57;62.18;101281.78;5010733;28;20225;-64
2022/05/08 07:50:54;;;;;;;11.03;6.80;;;;;;;18.61;62.61;101288.47;5010719;28;20228;-64
2022/05/08 07:53:22;;;;;;;11.10;7.63;;;;;;;18.68;63.11;101276.81;5014743;28;20229;-64
2022/05/08 07:55:51;;;;;;;13.63;7.10;;;;;;;18.78;62.29;101284.63;5015312;28;20241;-64
2022/05/08 07:58:20;;;;;;;10.60;6.87;;;;;;;18.81;62.50;101286.94;5015214;28;20213;-64
2022/05/08 08:00:53;;;;;;;10.47;6.63;;;;;;;18.92;60.90;101288.34;5015038;28;20304;-64
2022/05/08 08:03:21;;;;;;;11.50;6.93;;;;;;;19.00;61.07;101288.25;5016127;28;20620;-64
2022/05/08 08:05:49;;;;;;;11.20;6.70;;;;;;;19.08;60.55;101288.22;5015085;28;20220;-64
2022/05/08 08:08:39;;;;;;;11.63;6.33;;;;;;;19.13;60.65;101296.53;5007416;28;20201;-64
2022/05/08 08:11:07;;;;;;;7.63;6.00;;;;;;;19.25;59.26;101291.56;5015686;28;20220;-64
2022/05/08 08:13:36;;;;;;;8.90;6.20;;;;;;;19.32;59.07;101289.78;5014850;28;20217;-64
2022/05/08 08:16:07;;;;;;;8.93;5.97;;;;;;;19.42;59.22;101293.03;5014435;28;20197;-64
2022/05/08 08:18:35;;;;;;;10.07;5.73;;;;;;;19.50;60.00;101298.34;5029186;28;20212;-64
2022/05/08 08:21:09;;;;;;;9.00;5.77;;;;;;;19.55;59.11;101298.63;5029513;28;20217;-64
2022/05/08 08:23:38;;;;;;;9.00;6.20;;;;;;;19.64;58.96;101299.34;5014692;28;20205;-64
2022/05/08 08:26:06;;;;;;;9.33;5.70;;;;;;;19.75;58.59;101312.34;5014822;28;20209;-64
2022/05/08 08:28:34;;;;;;;8.50;5.43;;;;;;;19.82;58.59;101306.00;5013889;28;20213;-64
2022/05/08 08:31:01;;;;;;;15.03;6.70;;;;;;;19.86;58.79;101303.78;5013600;28;20205;-64
2022/05/08 08:33:31;;;;;;;9.90;6.33;;;;;;;19.92;58.52;101306.56;5014017;28;20476;-64
2022/05/08 08:35:59;;;;;;;8.70;5.80;;;;;;;20.02;57.90;101308.13;5014773;28;20209;-64
2022/05/08 08:38:28;;;;;;;8.00;5.97;;;;;;;20.14;57.33;101312.00;5014341;28;20228;-64
2022/05/08 08:40:57;;;;;;;7.93;5.47;;;;;;;20.20;57.23;101311.22;5013267;28;20220;-64
2022/05/08 08:43:27;;;;;;;9.73;5.97;;;;;;;20.28;57.89;101309.22;5013550;28;20553;-64
2022/05/08 08:48:52;;;;;;;12.60;6.43;;;;;;;20.40;57.74;101306.91;5013949;28;20237;-63
2022/05/08 08:51:20;;;;;;;14.00;6.10;;;;;;;20.40;57.29;101311.47;5013754;28;20642;-64
2022/05/08 08:53:55;;;;;;;7.20;5.43;;;;;;;20.46;56.57;101305.28;5013403;28;20240;-64
2022/05/08 08:56:23;;;;;;;9.13;5.60;;;;;;;20.55;56.72;101299.59;5014206;28;20198;-64
2022/05/08 08:58:51;;;;;;;10.07;5.50;;;;;;;20.63;57.03;101302.16;5013226;28;20213;-64
2022/05/08 09:01:19;;;;;;;9.37;5.13;;;;;;;20.70;56.56;101306.75;5013622;28;20313;-64
2022/05/08 09:03:56;;;;;;;10.80;5.60;;;;;;;20.80;55.36;101310.78;5013031;28;20217;-64
2022/05/08 09:06:37;;;;;;;8.63;5.10;;;;;;;20.85;55.65;101316.41;5012881;28;20716;-64
2022/05/08 09:09:22;;;;;;;8.20;4.90;;;;;;;20.78;56.10;101306.63;5013749;28;20666;-64
2022/05/08 09:12:02;;;;;;;7.13;4.87;;;;;;;20.95;55.10;101316.09;5014132;28;20205;-66
2022/05/08 09:14:31;;;;;;;9.77;5.67;;;;;;;21.06;54.93;101318.25;5013561;28;20622;-66
2022/05/08 09:17:00;;;;;;;9.97;5.73;;;;;;;21.16;54.52;101316.06;5015504;28;20734;-65
2022/05/08 09:19:37;;;;;;;7.93;5.40;;;;;;;21.25;55.34;101305.97;5033309;28;20577;-64
2022/05/08 09:22:06;;;;;;;8.40;4.93;;;;;;;21.31;55.31;101308.69;5020575;28;20229;-66
2022/05/08 09:24:35;;;;;;;7.37;5.03;;;;;;;21.35;54.02;101304.59;5013112;28;20567;-65
2022/05/08 09:27:10;;;;;;;9.30;6.17;;;;;;;21.43;54.31;101305.47;5012768;28;20245;-65
2022/05/08 09:29:37;;;;;;;7.97;5.20;;;;;;;21.48;54.49;101313.78;5013030;28;20299;-64
2022/05/08 09:32:36;;;;;;;9.37;5.70;;;;;;;21.42;53.61;101309.19;5012772;28;20243;-65
2022/05/08 09:35:06;;;;;;;7.20;5.00;;;;;;;21.54;54.06;101304.91;5013484;28;20299;-64
2022/05/08 09:37:34;;;;;;;10.03;5.50;;;;;;;21.51;54.26;101308.00;5013480;28;20194;-66
2022/05/08 09:40:18;;;;;;;6.67;4.93;;;;;;;21.68;53.18;101299.34;5012161;28;20220;-65
2022/05/08 09:42:49;;;;;;;8.53;5.53;;;;;;;21.78;53.52;101294.44;5012795;28;20644;-64
2022/05/08 09:45:23;;;;;;;10.97;5.63;;;;;;;21.79;53.12;101297.97;5013066;28;20201;-64
2022/05/08 09:47:51;;;;;;;10.30;5.33;;;;;;;21.90;53.34;101289.25;5013156;28;20218;-66
2022/05/08 09:50:21;;;;;;;7.33;5.53;;;;;;;21.93;52.70;101282.63;5012032;28;20241;-66
2022/05/08 09:52:50;;;;;;;8.30;5.10;;;;;;;22.08;52.13;101289.56;5013465;28;20186;-65
2022/05/08 09:55:17;;;;;;;6.90;4.87;;;;;;;22.13;52.75;101294.34;5012603;28;20241;-65
2022/05/08 09:57:45;;;;;;;7.77;4.83;;;;;;;22.25;53.09;101289.19;5013023;28;20702;-64
2022/05/08 10:00:16;;;;;;;6.97;4.80;;;;;;;22.31;51.04;101291.06;5010857;28;20583;-65
2022/05/08 10:02:45;;;;;;;6.72;4.68;;;;;;;22.40;50.63;101287.16;5012635;28;20221;-65
2022/05/08 10:05:13;;;;;;;8.00;4.88;;;;;;;22.50;49.41;101284.88;5012372;28;20209;-65
2022/05/08 10:07:43;;;;;;;6.63;4.32;;;;;;;22.50;50.34;101284.88;5012703;28;20804;-64
2022/05/08 10:15:48;;;;;;;8.35;4.15;;;;;;;22.76;50.49;101284.91;5011460;28;20239;-64
2022/05/08 10:18:24;;;;;;;5.85;4.63;;;;;;;22.86;49.26;101279.94;5024946;28;20286;-64
2022/05/08 10:21:06;;;;;;;9.32;4.60;;;;;;;22.93;48.90;101284.47;5030264;28;20201;-63
2022/05/08 10:23:37;;;;;;;9.43;4.82;;;;;;;23.01;48.25;101282.41;5012422;28;20220;-65
2022/05/08 10:26:16;;;;;;;8.15;4.57;;;;;;;23.08;47.93;101282.38;5003894;28;20201;-64
2022/05/08 10:29:15;;;;;;;6.43;4.53;;;;;;;23.19;48.36;101276.34;5011825;28;20230;-64
2022/05/08 10:31:48;;;;;;;7.32;4.75;;;;;;;23.26;48.23;101277.13;5011979;28;20296;-65
2022/05/08 10:34:16;;;;;;;7.15;4.30;;;;;;;23.34;48.67;101276.91;5012482;28;20193;-65
2022/05/08 10:37:21;;;;;;;6.70;4.80;;;;;;;23.43;48.78;101269.38;5012423;28;20316;-65
2022/05/08 10:39:53;;;;;;;9.38;4.70;;;;;;;23.53;47.20;101267.94;5013483;28;20685;-65
2022/05/08 10:42:42;;;;;;;5.90;3.97;;;;;;;23.66;47.18;101266.22;5013624;28;20229;-67
2022/05/08 10:45:41;;;;;;;7.18;4.53;;;;;;;23.63;46.88;101268.31;5013675;28;20252;-65
2022/05/08 10:48:13;;;;;;;6.80;4.40;;;;;;;23.67;45.63;101265.16;5011974;28;20678;-65
2022/05/08 10:50:44;;;;;;;5.50;4.07;;;;;;;23.82;46.32;101257.59;5010884;28;20269;-65
2022/05/08 10:53:24;;;;;;;5.22;4.00;;;;;;;23.93;46.06;101259.63;5011882;28;20319;-64
2022/05/08 10:56:00;;;;;;;8.52;4.70;;;;;;;23.99;46.15;101258.75;5010966;28;20603;-65
2022/05/08 10:58:28;;;;;;;8.00;4.30;;;;;;;24.01;44.59;101251.25;5010634;28;20259;-64
2022/05/08 11:00:57;;;;;;;5.50;4.35;;;;;;;24.05;45.09;101257.88;5011867;28;20600;-64
2022/05/08 11:03:26;;;;;;;7.75;4.30;;;;;;;24.18;45.79;101255.09;5012023;28;20584;-64
2022/05/08 11:05:53;;;;;;;8.48;4.43;;;;;;;24.29;44.89;101262.53;5011988;28;20698;-64
2022/05/08 11:08:23;;;;;;;7.43;4.22;;;;;;;24.38;43.58;101255.81;5012298;28;20300;-64
2022/05/08 11:11:07;;;;;;;5.63;3.88;;;;;;;24.35;42.04;101253.56;5011634;28;20296;-65
2022/05/08 11:13:43;;;;;;;7.10;4.13;;;;;;;24.44;43.17;101248.69;5012659;28;20205;-64
2022/05/08 11:16:12;;;;;;;7.38;4.50;;;;;;;24.59;41.93;101248.38;5012641;28;20277;-65
2022/05/08 11:18:40;;;;;;;7.43;4.20;;;;;;;24.69;42.14;101243.28;5027951;28;20205;-65
2022/05/08 11:21:09;;;;;;;5.75;4.00;;;;;;;24.79;42.32;101249.03;5026202;28;20293;-65
2022/05/08 11:23:42;;;;;;;7.43;4.18;;;;;;;24.94;42.83;101252.25;5011883;28;20233;-65
2022/05/08 11:26:13;;;;;;;5.03;3.30;;;;;;;25.02;42.22;101246.53;5013369;28;20366;-64
2022/05/08 11:28:57;;;;;;;5.20;3.63;;;;;;;25.20;40.56;101234.84;5015864;28;20216;-65
2022/05/08 11:31:27;;;;;;;30.98;9.25;;;;;;;25.24;40.24;101230.66;5016291;28;20720;-65
2022/05/08 11:36:44;;;;;;;6.10;3.75;;;;;;;25.19;39.79;101232.34;5017285;28;20676;-65
2022/05/08 11:39:13;;;;;;;8.13;3.67;;;;;;;25.07;40.41;101241.25;5016205;28;20194;-65
2022/05/08 11:41:44;;;;;;;8.13;4.10;;;;;;;24.99;40.83;101238.81;5016536;28;20634;-65
2022/05/08 11:44:23;;;;;;;7.75;4.15;;;;;;;24.95;40.42;101228.66;5016309;28;20377;-65
2022/05/08 11:46:54;;;;;;;6.60;3.78;;;;;;;24.81;39.87;101235.22;5015848;28;20213;-65
2022/05/08 11:49:22;;;;;;;7.25;4.00;;;;;;;24.67;40.95;101229.09;5016145;28;20655;-64
2022/05/08 11:51:51;;;;;;;8.13;4.25;;;;;;;24.41;40.52;101218.47;5015180;28;20217;-64
2022/05/08 11:54:30;;;;;;;8.05;3.83;;;;;;;24.33;41.44;101223.13;5015212;28;20324;-64
2022/05/08 11:57:17;;;;;;;5.85;4.03;;;;;;;24.40;41.71;101216.81;5016485;28;20546;-65
2022/05/08 11:59:46;;;;;;;5.35;3.42;;;;;;;24.22;41.67;101220.28;5015149;28;20224;-65